Terminal Aerodrome Forecast
Issued by NWS Memphis, TN

Home | Current Version | Previous Version | Text Only | Print | Product List | Glossary On
Versions: 1 2 3 4 5 6 7 8 9 10 11 12 13 14 15 16 17 18 19 20 21 22
000
FTUS44 KMEG 012300
TAFJBR
TAF
KJBR 012322Z 0200/0224 19009KT P6SM FEW040
     FM021000 21010KT P6SM BKN020
      TEMPO 0212/0215 BKN015
     FM021600 22012G17KT P6SM SCT035 BKN150
     FM022200 20010KT P6SM VCSH BKN040=

USA.gov is the U.S. government's official web portal to all federal, state and local government web resources and services.